sensor_id;sensor_type;location;lat;lon;timestamp;P1;durP1;ratioP1;P2;durP2;ratioP2
36415;SDS011;22447;44.530;18.620;2023-03-01T00:01:25;170.00;;;75.80;;
36415;SDS011;22447;44.530;18.620;2023-03-01T00:03:55;227.55;;;102.65;;
36415;SDS011;22447;44.530;18.620;2023-03-01T00:06:22;213.02;;;98.85;;
36415;SDS011;22447;44.530;18.620;2023-03-01T00:08:48;218.68;;;101.78;;
36415;SDS011;22447;44.530;18.620;2023-03-01T00:11:15;216.40;;;99.32;;
36415;SDS011;22447;44.530;18.620;2023-03-01T00:13:44;214.77;;;95.88;;
36415;SDS011;22447;44.530;18.620;2023-03-01T00:16:13;223.07;;;100.63;;
36415;SDS011;22447;44.530;18.620;2023-03-01T00:18:41;246.63;;;107.60;;
36415;SDS011;22447;44.530;18.620;2023-03-01T00:21:07;207.23;;;95.85;;
36415;SDS011;22447;44.530;18.620;2023-03-01T00:23:34;208.15;;;93.18;;
36415;SDS011;22447;44.530;18.620;2023-03-01T00:26:00;191.75;;;86.70;;
36415;SDS011;22447;44.530;18.620;2023-03-01T00:28:27;173.15;;;77.50;;
36415;SDS011;22447;44.530;18.620;2023-03-01T00:30:53;184.20;;;80.20;;
36415;SDS011;22447;44.530;18.620;2023-03-01T00:33:19;186.38;;;84.28;;
36415;SDS011;22447;44.530;18.620;2023-03-01T00:35:45;203.35;;;88.95;;
36415;SDS011;22447;44.530;18.620;2023-03-01T00:38:11;194.05;;;89.93;;
36415;SDS011;22447;44.530;18.620;2023-03-01T00:40:37;193.20;;;86.78;;
36415;SDS011;22447;44.530;18.620;2023-03-01T00:43:03;193.38;;;85.75;;
36415;SDS011;22447;44.530;18.620;2023-03-01T00:45:29;200.95;;;91.97;;
36415;SDS011;22447;44.530;18.620;2023-03-01T00:47:57;190.95;;;86.78;;
36415;SDS011;22447;44.530;18.620;2023-03-01T00:50:23;192.23;;;86.20;;
36415;SDS011;22447;44.530;18.620;2023-03-01T00:52:55;198.20;;;86.70;;
36415;SDS011;22447;44.530;18.620;2023-03-01T00:55:21;184.30;;;82.93;;
36415;SDS011;22447;44.530;18.620;2023-03-01T00:57:47;197.27;;;85.10;;
36415;SDS011;22447;44.530;18.620;2023-03-01T01:00:14;187.30;;;82.43;;
36415;SDS011;22447;44.530;18.620;2023-03-01T01:02:40;196.02;;;85.72;;
36415;SDS011;22447;44.530;18.620;2023-03-01T01:05:06;189.05;;;82.63;;
36415;SDS011;22447;44.530;18.620;2023-03-01T01:07:32;196.75;;;83.28;;
36415;SDS011;22447;44.530;18.620;2023-03-01T01:09:58;195.00;;;83.32;;
36415;SDS011;22447;44.530;18.620;2023-03-01T01:12:25;190.25;;;80.57;;
36415;SDS011;22447;44.530;18.620;2023-03-01T01:14:50;196.77;;;84.80;;
36415;SDS011;22447;44.530;18.620;2023-03-01T01:17:16;190.73;;;82.63;;
36415;SDS011;22447;44.530;18.620;2023-03-01T01:19:42;181.60;;;80.07;;
36415;SDS011;22447;44.530;18.620;2023-03-01T01:22:08;183.27;;;80.63;;
36415;SDS011;22447;44.530;18.620;2023-03-01T01:24:35;186.57;;;80.13;;
36415;SDS011;22447;44.530;18.620;2023-03-01T01:27:01;197.55;;;80.50;;
36415;SDS011;22447;44.530;18.620;2023-03-01T01:29:27;206.60;;;91.10;;
36415;SDS011;22447;44.530;18.620;2023-03-01T01:31:53;202.60;;;87.57;;
36415;SDS011;22447;44.530;18.620;2023-03-01T01:34:20;200.70;;;84.20;;
36415;SDS011;22447;44.530;18.620;2023-03-01T01:36:50;195.60;;;82.57;;
36415;SDS011;22447;44.530;18.620;2023-03-01T01:39:20;208.02;;;86.50;;
36415;SDS011;22447;44.530;18.620;2023-03-01T01:41:47;192.20;;;81.18;;
36415;SDS011;22447;44.530;18.620;2023-03-01T01:46:51;191.98;;;81.38;;
36415;SDS011;22447;44.530;18.620;2023-03-01T01:49:29;201.45;;;83.82;;
36415;SDS011;22447;44.530;18.620;2023-03-01T01:52:08;188.88;;;79.50;;
36415;SDS011;22447;44.530;18.620;2023-03-01T01:55:19;203.15;;;82.85;;
36415;SDS011;22447;44.530;18.620;2023-03-01T01:57:50;202.30;;;83.88;;
36415;SDS011;22447;44.530;18.620;2023-03-01T02:00:20;221.82;;;89.43;;
36415;SDS011;22447;44.530;18.620;2023-03-01T02:02:49;178.40;;;79.20;;
36415;SDS011;22447;44.530;18.620;2023-03-01T02:08:08;176.43;;;79.50;;
36415;SDS011;22447;44.530;18.620;2023-03-01T02:10:37;186.90;;;79.20;;
36415;SDS011;22447;44.530;18.620;2023-03-01T02:13:04;190.75;;;83.57;;
36415;SDS011;22447;44.530;18.620;2023-03-01T02:15:32;181.25;;;79.25;;
36415;SDS011;22447;44.530;18.620;2023-03-01T02:17:59;177.20;;;77.18;;
36415;SDS011;22447;44.530;18.620;2023-03-01T02:22:59;164.65;;;69.85;;
36415;SDS011;22447;44.530;18.620;2023-03-01T02:30:43;162.02;;;72.05;;
36415;SDS011;22447;44.530;18.620;2023-03-01T02:33:31;152.68;;;67.75;;
36415;SDS011;22447;44.530;18.620;2023-03-01T02:36:08;172.90;;;72.32;;
36415;SDS011;22447;44.530;18.620;2023-03-01T02:38:39;162.52;;;69.85;;
36415;SDS011;22447;44.530;18.620;2023-03-01T02:41:08;164.80;;;70.80;;
36415;SDS011;22447;44.530;18.620;2023-03-01T02:43:38;161.45;;;67.75;;
36415;SDS011;22447;44.530;18.620;2023-03-01T02:46:06;180.82;;;70.78;;
36415;SDS011;22447;44.530;18.620;2023-03-01T02:48:47;158.13;;;68.75;;
36415;SDS011;22447;44.530;18.620;2023-03-01T02:51:18;187.30;;;72.80;;
36415;SDS011;22447;44.530;18.620;2023-03-01T02:56:38;174.60;;;71.57;;
36415;SDS011;22447;44.530;18.620;2023-03-01T02:59:05;190.35;;;76.57;;
36415;SDS011;22447;44.530;18.620;2023-03-01T03:01:33;177.60;;;72.22;;
36415;SDS011;22447;44.530;18.620;2023-03-01T03:04:07;182.57;;;72.03;;
36415;SDS011;22447;44.530;18.620;2023-03-01T03:06:36;139.20;;;62.00;;
36415;SDS011;22447;44.530;18.620;2023-03-01T03:09:03;164.63;;;67.50;;
36415;SDS011;22447;44.530;18.620;2023-03-01T03:11:30;169.40;;;71.70;;
36415;SDS011;22447;44.530;18.620;2023-03-01T03:13:57;192.50;;;81.63;;
36415;SDS011;22447;44.530;18.620;2023-03-01T03:16:23;188.05;;;72.40;;
36415;SDS011;22447;44.530;18.620;2023-03-01T03:18:50;176.38;;;71.13;;
36415;SDS011;22447;44.530;18.620;2023-03-01T03:21:16;202.68;;;79.40;;
36415;SDS011;22447;44.530;18.620;2023-03-01T03:23:42;242.43;;;96.03;;
36415;SDS011;22447;44.530;18.620;2023-03-01T03:26:09;215.50;;;85.10;;
36415;SDS011;22447;44.530;18.620;2023-03-01T03:28:38;154.63;;;65.43;;
36415;SDS011;22447;44.530;18.620;2023-03-01T03:31:06;129.45;;;57.15;;
36415;SDS011;22447;44.530;18.620;2023-03-01T03:33:32;124.10;;;53.22;;
36415;SDS011;22447;44.530;18.620;2023-03-01T03:35:58;117.88;;;52.20;;
36415;SDS011;22447;44.530;18.620;2023-03-01T03:38:24;133.25;;;54.92;;
36415;SDS011;22447;44.530;18.620;2023-03-01T03:40:51;159.82;;;63.05;;
36415;SDS011;22447;44.530;18.620;2023-03-01T03:43:28;188.57;;;74.18;;
36415;SDS011;22447;44.530;18.620;2023-03-01T03:45:56;193.60;;;72.32;;
36415;SDS011;22447;44.530;18.620;2023-03-01T03:48:22;203.13;;;75.80;;
36415;SDS011;22447;44.530;18.620;2023-03-01T03:50:52;200.70;;;76.30;;
36415;SDS011;22447;44.530;18.620;2023-03-01T03:53:20;236.88;;;84.38;;
36415;SDS011;22447;44.530;18.620;2023-03-01T03:55:47;223.23;;;81.43;;
36415;SDS011;22447;44.530;18.620;2023-03-01T03:58:17;225.73;;;80.45;;
36415;SDS011;22447;44.530;18.620;2023-03-01T04:00:45;227.73;;;81.72;;
36415;SDS011;22447;44.530;18.620;2023-03-01T04:03:12;240.98;;;84.82;;
36415;SDS011;22447;44.530;18.620;2023-03-01T04:05:40;213.75;;;78.43;;
36415;SDS011;22447;44.530;18.620;2023-03-01T04:08:07;216.40;;;77.82;;
36415;SDS011;22447;44.530;18.620;2023-03-01T04:10:40;230.10;;;81.18;;
36415;SDS011;22447;44.530;18.620;2023-03-01T04:13:13;217.73;;;79.88;;
36415;SDS011;22447;44.530;18.620;2023-03-01T04:15:41;213.90;;;76.97;;
36415;SDS011;22447;44.530;18.620;2023-03-01T04:18:11;218.23;;;77.38;;
36415;SDS011;22447;44.530;18.620;2023-03-01T04:20:38;221.52;;;78.00;;
36415;SDS011;22447;44.530;18.620;2023-03-01T04:23:05;195.43;;;73.28;;
36415;SDS011;22447;44.530;18.620;2023-03-01T04:25:51;192.05;;;72.32;;
36415;SDS011;22447;44.530;18.620;2023-03-01T04:28:20;226.30;;;78.65;;
36415;SDS011;22447;44.530;18.620;2023-03-01T04:30:51;194.13;;;71.45;;
36415;SDS011;22447;44.530;18.620;2023-03-01T04:33:18;194.93;;;73.63;;
36415;SDS011;22447;44.530;18.620;2023-03-01T04:35:44;208.02;;;73.72;;
36415;SDS011;22447;44.530;18.620;2023-03-01T04:38:10;208.02;;;81.13;;
36415;SDS011;22447;44.530;18.620;2023-03-01T04:40:36;204.73;;;75.40;;
36415;SDS011;22447;44.530;18.620;2023-03-01T04:43:03;191.65;;;71.95;;
36415;SDS011;22447;44.530;18.620;2023-03-01T04:45:29;207.18;;;74.53;;
36415;SDS011;22447;44.530;18.620;2023-03-01T04:47:59;178.90;;;68.72;;
36415;SDS011;22447;44.530;18.620;2023-03-01T04:50:25;193.20;;;71.60;;
36415;SDS011;22447;44.530;18.620;2023-03-01T04:52:51;181.40;;;69.22;;
36415;SDS011;22447;44.530;18.620;2023-03-01T04:55:18;206.20;;;76.40;;
36415;SDS011;22447;44.530;18.620;2023-03-01T04:57:44;196.63;;;76.47;;
36415;SDS011;22447;44.530;18.620;2023-03-01T05:00:11;191.88;;;71.38;;
36415;SDS011;22447;44.530;18.620;2023-03-01T05:02:47;192.90;;;75.45;;
36415;SDS011;22447;44.530;18.620;2023-03-01T05:05:22;197.82;;;75.07;;
36415;SDS011;22447;44.530;18.620;2023-03-01T05:07:53;186.98;;;69.63;;
36415;SDS011;22447;44.530;18.620;2023-03-01T05:10:21;169.38;;;68.35;;
36415;SDS011;22447;44.530;18.620;2023-03-01T05:12:48;183.70;;;72.85;;
36415;SDS011;22447;44.530;18.620;2023-03-01T05:15:14;163.27;;;66.35;;
36415;SDS011;22447;44.530;18.620;2023-03-01T05:17:40;178.88;;;71.80;;
36415;SDS011;22447;44.530;18.620;2023-03-01T05:20:06;242.23;;;86.22;;
36415;SDS011;22447;44.530;18.620;2023-03-01T05:22:35;227.65;;;80.10;;
36415;SDS011;22447;44.530;18.620;2023-03-01T05:25:03;202.75;;;75.95;;
36415;SDS011;22447;44.530;18.620;2023-03-01T05:27:29;212.82;;;79.38;;
36415;SDS011;22447;44.530;18.620;2023-03-01T05:29:56;239.82;;;85.32;;
36415;SDS011;22447;44.530;18.620;2023-03-01T05:32:22;250.40;;;85.85;;
36415;SDS011;22447;44.530;18.620;2023-03-01T05:34:48;249.88;;;86.40;;
36415;SDS011;22447;44.530;18.620;2023-03-01T05:37:13;246.65;;;89.38;;
36415;SDS011;22447;44.530;18.620;2023-03-01T05:39:39;258.95;;;95.63;;
36415;SDS011;22447;44.530;18.620;2023-03-01T05:42:09;257.48;;;95.10;;
36415;SDS011;22447;44.530;18.620;2023-03-01T05:44:36;250.05;;;92.10;;
36415;SDS011;22447;44.530;18.620;2023-03-01T05:47:02;262.42;;;97.05;;
36415;SDS011;22447;44.530;18.620;2023-03-01T05:49:28;239.57;;;93.25;;
36415;SDS011;22447;44.530;18.620;2023-03-01T05:51:55;267.40;;;94.32;;
36415;SDS011;22447;44.530;18.620;2023-03-01T05:54:21;254.85;;;94.32;;
36415;SDS011;22447;44.530;18.620;2023-03-01T05:56:47;283.45;;;104.72;;
36415;SDS011;22447;44.530;18.620;2023-03-01T05:59:13;241.45;;;93.22;;
36415;SDS011;22447;44.530;18.620;2023-03-01T06:01:41;228.13;;;94.35;;
36415;SDS011;22447;44.530;18.620;2023-03-01T06:04:07;219.90;;;93.43;;
36415;SDS011;22447;44.530;18.620;2023-03-01T06:06:34;217.13;;;88.60;;
36415;SDS011;22447;44.530;18.620;2023-03-01T06:09:05;234.20;;;96.95;;
36415;SDS011;22447;44.530;18.620;2023-03-01T06:11:33;227.27;;;89.03;;
36415;SDS011;22447;44.530;18.620;2023-03-01T06:14:00;226.90;;;91.68;;
36415;SDS011;22447;44.530;18.620;2023-03-01T06:16:26;245.68;;;92.93;;
36415;SDS011;22447;44.530;18.620;2023-03-01T06:18:52;221.48;;;80.57;;
36415;SDS011;22447;44.530;18.620;2023-03-01T06:21:18;190.23;;;75.10;;
36415;SDS011;22447;44.530;18.620;2023-03-01T06:23:43;166.02;;;67.53;;
36415;SDS011;22447;44.530;18.620;2023-03-01T06:26:09;172.07;;;67.72;;
36415;SDS011;22447;44.530;18.620;2023-03-01T06:28:35;170.23;;;68.13;;
36415;SDS011;22447;44.530;18.620;2023-03-01T06:31:01;169.23;;;72.72;;
36415;SDS011;22447;44.530;18.620;2023-03-01T06:33:28;157.85;;;63.65;;
36415;SDS011;22447;44.530;18.620;2023-03-01T06:35:54;140.25;;;59.58;;
36415;SDS011;22447;44.530;18.620;2023-03-01T06:38:21;166.73;;;68.18;;
36415;SDS011;22447;44.530;18.620;2023-03-01T06:40:52;181.10;;;70.55;;
36415;SDS011;22447;44.530;18.620;2023-03-01T06:45:46;166.68;;;60.60;;
36415;SDS011;22447;44.530;18.620;2023-03-01T06:48:12;148.60;;;60.75;;
36415;SDS011;22447;44.530;18.620;2023-03-01T06:50:37;157.73;;;61.85;;
36415;SDS011;22447;44.530;18.620;2023-03-01T06:53:03;160.48;;;63.83;;
36415;SDS011;22447;44.530;18.620;2023-03-01T06:55:30;154.02;;;62.13;;
36415;SDS011;22447;44.530;18.620;2023-03-01T06:57:57;154.80;;;62.40;;
36415;SDS011;22447;44.530;18.620;2023-03-01T07:00:24;155.68;;;61.95;;
36415;SDS011;22447;44.530;18.620;2023-03-01T07:02:50;164.88;;;63.22;;
36415;SDS011;22447;44.530;18.620;2023-03-01T07:05:16;181.13;;;65.18;;
36415;SDS011;22447;44.530;18.620;2023-03-01T07:07:43;177.57;;;67.22;;
36415;SDS011;22447;44.530;18.620;2023-03-01T07:10:09;185.10;;;75.80;;
36415;SDS011;22447;44.530;18.620;2023-03-01T07:12:35;164.73;;;66.60;;
36415;SDS011;22447;44.530;18.620;2023-03-01T07:15:01;171.30;;;64.00;;
36415;SDS011;22447;44.530;18.620;2023-03-01T07:17:28;155.07;;;60.08;;
36415;SDS011;22447;44.530;18.620;2023-03-01T07:19:54;159.68;;;64.13;;
36415;SDS011;22447;44.530;18.620;2023-03-01T07:22:20;170.45;;;67.63;;
36415;SDS011;22447;44.530;18.620;2023-03-01T07:24:46;166.55;;;65.82;;
36415;SDS011;22447;44.530;18.620;2023-03-01T07:27:12;156.40;;;61.42;;
36415;SDS011;22447;44.530;18.620;2023-03-01T07:29:38;158.90;;;60.97;;
36415;SDS011;22447;44.530;18.620;2023-03-01T07:32:04;156.45;;;56.65;;
36415;SDS011;22447;44.530;18.620;2023-03-01T07:34:31;142.02;;;52.92;;
36415;SDS011;22447;44.530;18.620;2023-03-01T07:36:57;149.10;;;57.42;;
36415;SDS011;22447;44.530;18.620;2023-03-01T07:39:23;134.35;;;56.33;;
36415;SDS011;22447;44.530;18.620;2023-03-01T07:41:50;140.65;;;53.58;;
36415;SDS011;22447;44.530;18.620;2023-03-01T07:44:20;138.82;;;54.83;;
36415;SDS011;22447;44.530;18.620;2023-03-01T07:46:46;137.25;;;56.22;;
36415;SDS011;22447;44.530;18.620;2023-03-01T07:49:12;138.73;;;54.10;;
36415;SDS011;22447;44.530;18.620;2023-03-01T07:51:38;148.70;;;55.95;;
36415;SDS011;22447;44.530;18.620;2023-03-01T07:54:04;136.75;;;54.38;;
36415;SDS011;22447;44.530;18.620;2023-03-01T07:56:30;153.30;;;63.75;;
36415;SDS011;22447;44.530;18.620;2023-03-01T07:58:56;150.38;;;73.18;;
36415;SDS011;22447;44.530;18.620;2023-03-01T08:01:21;152.80;;;74.03;;
36415;SDS011;22447;44.530;18.620;2023-03-01T08:03:48;132.93;;;62.95;;
36415;SDS011;22447;44.530;18.620;2023-03-01T08:06:14;126.60;;;55.72;;
36415;SDS011;22447;44.530;18.620;2023-03-01T08:08:42;143.05;;;60.80;;
36415;SDS011;22447;44.530;18.620;2023-03-01T08:11:10;146.13;;;57.10;;
36415;SDS011;22447;44.530;18.620;2023-03-01T08:13:37;134.70;;;57.70;;
36415;SDS011;22447;44.530;18.620;2023-03-01T08:16:04;116.95;;;48.40;;
36415;SDS011;22447;44.530;18.620;2023-03-01T08:18:32;136.43;;;53.65;;
36415;SDS011;22447;44.530;18.620;2023-03-01T08:21:08;140.15;;;54.65;;
36415;SDS011;22447;44.530;18.620;2023-03-01T08:23:36;147.93;;;54.72;;
36415;SDS011;22447;44.530;18.620;2023-03-01T08:26:07;136.57;;;53.00;;
36415;SDS011;22447;44.530;18.620;2023-03-01T08:28:35;151.52;;;54.00;;
36415;SDS011;22447;44.530;18.620;2023-03-01T08:31:01;159.35;;;57.25;;
36415;SDS011;22447;44.530;18.620;2023-03-01T08:33:27;147.73;;;58.47;;
36415;SDS011;22447;44.530;18.620;2023-03-01T08:36:01;167.20;;;62.00;;
36415;SDS011;22447;44.530;18.620;2023-03-01T08:38:30;153.20;;;62.67;;
36415;SDS011;22447;44.530;18.620;2023-03-01T08:40:58;153.55;;;60.88;;
36415;SDS011;22447;44.530;18.620;2023-03-01T08:43:25;178.93;;;70.43;;
36415;SDS011;22447;44.530;18.620;2023-03-01T08:45:51;181.30;;;73.45;;
36415;SDS011;22447;44.530;18.620;2023-03-01T08:48:17;160.25;;;64.50;;
36415;SDS011;22447;44.530;18.620;2023-03-01T08:50:43;92.60;;;42.90;;
36415;SDS011;22447;44.530;18.620;2023-03-01T08:53:09;98.28;;;43.40;;
36415;SDS011;22447;44.530;18.620;2023-03-01T08:55:35;96.15;;;42.70;;
36415;SDS011;22447;44.530;18.620;2023-03-01T08:58:01;113.32;;;47.58;;
36415;SDS011;22447;44.530;18.620;2023-03-01T09:00:26;100.15;;;46.13;;
36415;SDS011;22447;44.530;18.620;2023-03-01T09:02:53;119.75;;;53.63;;
36415;SDS011;22447;44.530;18.620;2023-03-01T09:05:19;121.88;;;57.15;;
36415;SDS011;22447;44.530;18.620;2023-03-01T09:07:44;91.55;;;43.22;;
36415;SDS011;22447;44.530;18.620;2023-03-01T09:10:10;77.95;;;38.20;;
36415;SDS011;22447;44.530;18.620;2023-03-01T09:12:36;81.90;;;39.38;;
36415;SDS011;22447;44.530;18.620;2023-03-01T09:15:03;90.68;;;41.28;;
36415;SDS011;22447;44.530;18.620;2023-03-01T09:17:29;73.22;;;36.03;;
36415;SDS011;22447;44.530;18.620;2023-03-01T09:19:55;72.00;;;35.40;;
36415;SDS011;22447;44.530;18.620;2023-03-01T09:22:21;74.53;;;34.00;;
36415;SDS011;22447;44.530;18.620;2023-03-01T09:24:46;78.57;;;37.28;;
36415;SDS011;22447;44.530;18.620;2023-03-01T09:27:12;78.38;;;37.60;;
36415;SDS011;22447;44.530;18.620;2023-03-01T09:29:39;78.15;;;37.70;;
36415;SDS011;22447;44.530;18.620;2023-03-01T09:32:05;90.60;;;42.42;;
36415;SDS011;22447;44.530;18.620;2023-03-01T09:34:33;91.13;;;45.25;;
36415;SDS011;22447;44.530;18.620;2023-03-01T09:37:19;100.00;;;50.38;;
36415;SDS011;22447;44.530;18.620;2023-03-01T09:39:45;101.43;;;49.08;;
36415;SDS011;22447;44.530;18.620;2023-03-01T09:42:11;102.10;;;51.65;;
36415;SDS011;22447;44.530;18.620;2023-03-01T09:44:48;99.07;;;46.92;;
36415;SDS011;22447;44.530;18.620;2023-03-01T09:47:41;96.15;;;48.58;;
36415;SDS011;22447;44.530;18.620;2023-03-01T09:55:39;93.75;;;47.65;;
36415;SDS011;22447;44.530;18.620;2023-03-01T10:00:54;99.90;;;45.30;;
36415;SDS011;22447;44.530;18.620;2023-03-01T10:03:26;98.38;;;44.53;;
36415;SDS011;22447;44.530;18.620;2023-03-01T10:05:59;128.05;;;52.90;;
36415;SDS011;22447;44.530;18.620;2023-03-01T10:08:38;145.50;;;60.05;;
36415;SDS011;22447;44.530;18.620;2023-03-01T10:11:28;196.68;;;72.82;;
36415;SDS011;22447;44.530;18.620;2023-03-01T10:13:58;200.38;;;74.13;;
36415;SDS011;22447;44.530;18.620;2023-03-01T10:16:37;206.13;;;78.03;;
36415;SDS011;22447;44.530;18.620;2023-03-01T10:19:21;230.85;;;80.78;;
36415;SDS011;22447;44.530;18.620;2023-03-01T10:21:56;206.45;;;76.50;;
36415;SDS011;22447;44.530;18.620;2023-03-01T10:24:27;252.15;;;91.70;;
36415;SDS011;22447;44.530;18.620;2023-03-01T10:27:01;272.30;;;99.40;;
36415;SDS011;22447;44.530;18.620;2023-03-01T10:32:22;244.20;;;89.47;;
36415;SDS011;22447;44.530;18.620;2023-03-01T10:34:47;265.27;;;94.80;;
36415;SDS011;22447;44.530;18.620;2023-03-01T10:37:15;250.63;;;87.72;;
36415;SDS011;22447;44.530;18.620;2023-03-01T10:39:54;223.52;;;81.18;;
36415;SDS011;22447;44.530;18.620;2023-03-01T10:42:45;236.45;;;84.72;;
36415;SDS011;22447;44.530;18.620;2023-03-01T10:50:43;231.55;;;81.10;;
36415;SDS011;22447;44.530;18.620;2023-03-01T10:53:21;235.35;;;85.45;;
36415;SDS011;22447;44.530;18.620;2023-03-01T10:55:57;228.85;;;81.05;;
36415;SDS011;22447;44.530;18.620;2023-03-01T10:58:27;208.43;;;73.18;;
36415;SDS011;22447;44.530;18.620;2023-03-01T11:00:54;199.82;;;77.35;;
36415;SDS011;22447;44.530;18.620;2023-03-01T11:03:24;204.18;;;74.85;;
36415;SDS011;22447;44.530;18.620;2023-03-01T11:05:52;235.95;;;83.55;;
36415;SDS011;22447;44.530;18.620;2023-03-01T11:08:30;263.55;;;94.30;;
36415;SDS011;22447;44.530;18.620;2023-03-01T11:11:24;279.70;;;99.97;;
36415;SDS011;22447;44.530;18.620;2023-03-01T11:14:15;286.27;;;108.20;;
36415;SDS011;22447;44.530;18.620;2023-03-01T11:16:44;284.10;;;101.88;;
36415;SDS011;22447;44.530;18.620;2023-03-01T11:24:39;308.23;;;102.83;;
36415;SDS011;22447;44.530;18.620;2023-03-01T11:27:28;300.75;;;104.88;;
36415;SDS011;22447;44.530;18.620;2023-03-01T11:30:04;311.30;;;107.75;;
36415;SDS011;22447;44.530;18.620;2023-03-01T11:35:37;308.58;;;104.32;;
36415;SDS011;22447;44.530;18.620;2023-03-01T11:38:20;321.38;;;107.70;;
36415;SDS011;22447;44.530;18.620;2023-03-01T11:41:02;294.75;;;101.43;;
36415;SDS011;22447;44.530;18.620;2023-03-01T11:49:13;294.05;;;101.32;;
36415;SDS011;22447;44.530;18.620;2023-03-01T12:00:02;268.25;;;99.07;;
36415;SDS011;22447;44.530;18.620;2023-03-01T12:03:07;317.15;;;129.70;;
36415;SDS011;22447;44.530;18.620;2023-03-01T12:08:39;267.13;;;101.70;;
36415;SDS011;22447;44.530;18.620;2023-03-01T12:11:41;269.85;;;95.53;;
36415;SDS011;22447;44.530;18.620;2023-03-01T12:25:27;258.60;;;96.18;;
36415;SDS011;22447;44.530;18.620;2023-03-01T12:28:14;267.38;;;94.85;;
36415;SDS011;22447;44.530;18.620;2023-03-01T12:42:15;228.82;;;85.90;;
36415;SDS011;22447;44.530;18.620;2023-03-01T12:50:17;262.85;;;95.75;;
36415;SDS011;22447;44.530;18.620;2023-03-01T12:55:36;241.80;;;91.82;;
36415;SDS011;22447;44.530;18.620;2023-03-01T12:58:19;236.48;;;90.65;;
36415;SDS011;22447;44.530;18.620;2023-03-01T13:07:31;266.30;;;95.57;;
36415;SDS011;22447;44.530;18.620;2023-03-01T13:17:52;334.15;;;105.78;;
36415;SDS011;22447;44.530;18.620;2023-03-01T13:20:20;350.33;;;107.93;;
36415;SDS011;22447;44.530;18.620;2023-03-01T13:23:13;315.17;;;105.53;;
36415;SDS011;22447;44.530;18.620;2023-03-01T13:28:38;323.95;;;107.82;;
36415;SDS011;22447;44.530;18.620;2023-03-01T13:33:43;338.90;;;111.85;;
36415;SDS011;22447;44.530;18.620;2023-03-01T13:36:11;348.25;;;113.43;;
36415;SDS011;22447;44.530;18.620;2023-03-01T13:38:58;342.25;;;112.18;;
36415;SDS011;22447;44.530;18.620;2023-03-01T13:44:13;351.08;;;113.38;;
36415;SDS011;22447;44.530;18.620;2023-03-01T13:47:36;355.48;;;109.75;;
36415;SDS011;22447;44.530;18.620;2023-03-01T13:49:47;381.80;;;116.70;;
36415;SDS011;22447;44.530;18.620;2023-03-01T13:52:38;378.98;;;113.88;;
36415;SDS011;22447;44.530;18.620;2023-03-01T13:58:00;358.17;;;112.85;;
36415;SDS011;22447;44.530;18.620;2023-03-01T14:00:36;374.45;;;118.15;;
36415;SDS011;22447;44.530;18.620;2023-03-01T14:05:29;439.13;;;136.50;;
36415;SDS011;22447;44.530;18.620;2023-03-01T14:07:56;369.23;;;121.03;;
36415;SDS011;22447;44.530;18.620;2023-03-01T14:10:22;354.98;;;115.80;;
36415;SDS011;22447;44.530;18.620;2023-03-01T14:15:53;371.65;;;117.43;;
36415;SDS011;22447;44.530;18.620;2023-03-01T14:21:00;392.00;;;123.07;;
36415;SDS011;22447;44.530;18.620;2023-03-01T14:23:32;412.73;;;126.00;;
36415;SDS011;22447;44.530;18.620;2023-03-01T14:26:00;438.35;;;132.82;;
36415;SDS011;22447;44.530;18.620;2023-03-01T14:28:29;438.13;;;138.20;;
36415;SDS011;22447;44.530;18.620;2023-03-01T14:30:59;424.08;;;132.50;;
36415;SDS011;22447;44.530;18.620;2023-03-01T14:33:35;377.67;;;117.72;;
36415;SDS011;22447;44.530;18.620;2023-03-01T14:36:03;407.13;;;133.32;;
36415;SDS011;22447;44.530;18.620;2023-03-01T14:38:41;375.75;;;120.07;;
36415;SDS011;22447;44.530;18.620;2023-03-01T14:41:14;377.52;;;118.78;;
36415;SDS011;22447;44.530;18.620;2023-03-01T14:43:44;375.42;;;119.45;;
36415;SDS011;22447;44.530;18.620;2023-03-01T14:51:21;364.17;;;117.10;;
36415;SDS011;22447;44.530;18.620;2023-03-01T14:53:48;415.88;;;123.82;;
36415;SDS011;22447;44.530;18.620;2023-03-01T14:56:15;440.70;;;128.43;;
36415;SDS011;22447;44.530;18.620;2023-03-01T14:58:45;442.23;;;131.30;;
36415;SDS011;22447;44.530;18.620;2023-03-01T15:01:13;450.48;;;132.40;;
36415;SDS011;22447;44.530;18.620;2023-03-01T15:03:50;450.95;;;131.18;;
36415;SDS011;22447;44.530;18.620;2023-03-01T15:06:17;435.70;;;129.55;;
36415;SDS011;22447;44.530;18.620;2023-03-01T15:08:46;424.55;;;133.93;;
36415;SDS011;22447;44.530;18.620;2023-03-01T15:13:50;419.42;;;124.93;;
36415;SDS011;22447;44.530;18.620;2023-03-01T15:16:24;439.77;;;124.60;;
36415;SDS011;22447;44.530;18.620;2023-03-01T15:19:01;407.05;;;117.72;;
36415;SDS011;22447;44.530;18.620;2023-03-01T15:26:40;382.80;;;110.07;;
36415;SDS011;22447;44.530;18.620;2023-03-01T15:29:19;387.30;;;112.70;;
36415;SDS011;22447;44.530;18.620;2023-03-01T15:31:57;382.42;;;111.78;;
36415;SDS011;22447;44.530;18.620;2023-03-01T15:34:38;339.55;;;98.43;;
36415;SDS011;22447;44.530;18.620;2023-03-01T15:37:05;379.48;;;101.40;;
36415;SDS011;22447;44.530;18.620;2023-03-01T15:39:41;392.08;;;106.05;;
36415;SDS011;22447;44.530;18.620;2023-03-01T15:44:37;415.40;;;116.25;;
36415;SDS011;22447;44.530;18.620;2023-03-01T15:47:20;402.73;;;118.05;;
36415;SDS011;22447;44.530;18.620;2023-03-01T15:49:54;423.45;;;121.10;;
36415;SDS011;22447;44.530;18.620;2023-03-01T15:52:26;400.35;;;118.35;;
36415;SDS011;22447;44.530;18.620;2023-03-01T15:55:14;443.80;;;128.80;;
36415;SDS011;22447;44.530;18.620;2023-03-01T15:57:45;426.67;;;126.45;;
36415;SDS011;22447;44.530;18.620;2023-03-01T16:00:12;442.17;;;130.20;;
36415;SDS011;22447;44.530;18.620;2023-03-01T16:02:40;441.73;;;136.57;;
36415;SDS011;22447;44.530;18.620;2023-03-01T16:05:21;426.10;;;123.25;;
36415;SDS011;22447;44.530;18.620;2023-03-01T16:07:50;412.67;;;117.57;;
36415;SDS011;22447;44.530;18.620;2023-03-01T16:10:16;397.10;;;118.05;;
36415;SDS011;22447;44.530;18.620;2023-03-01T16:12:42;432.88;;;123.35;;
36415;SDS011;22447;44.530;18.620;2023-03-01T16:15:51;438.23;;;125.45;;
36415;SDS011;22447;44.530;18.620;2023-03-01T16:18:01;405.33;;;117.05;;
36415;SDS011;22447;44.530;18.620;2023-03-01T16:20:28;429.77;;;127.05;;
36415;SDS011;22447;44.530;18.620;2023-03-01T16:22:57;432.60;;;127.72;;
36415;SDS011;22447;44.530;18.620;2023-03-01T16:25:25;376.90;;;112.85;;
36415;SDS011;22447;44.530;18.620;2023-03-01T16:27:51;384.40;;;114.55;;
36415;SDS011;22447;44.530;18.620;2023-03-01T16:30:20;405.80;;;115.30;;